createdAt,value
2023-03-06T00:02:00.942Z,96160.50
2023-03-06T00:06:04.798Z,96155.66
2023-03-06T00:10:05.574Z,96155.28
2023-03-06T00:14:06.152Z,96139.56
2023-03-06T00:18:08.444Z,96143.41
2023-03-06T00:22:16.606Z,96144.81
2023-03-06T00:26:17.093Z,96145.41
2023-03-06T00:30:21.561Z,96143.19
2023-03-06T00:34:22.085Z,96136.75
2023-03-06T00:38:27.752Z,96123.69
2023-03-06T00:42:32.772Z,96124.69
2023-03-06T00:46:33.445Z,96115.00
2023-03-06T00:50:35.283Z,96113.81
2023-03-06T00:54:38.518Z,96106.19
2023-03-06T00:58:39.824Z,96101.72
2023-03-06T01:02:40.440Z,96100.13
2023-03-06T01:06:41.096Z,96086.84
2023-03-06T01:10:44.771Z,96092.53
2023-03-06T01:14:45.658Z,96083.28
2023-03-06T01:18:46.220Z,96080.44
2023-03-06T01:22:46.921Z,96085.66
2023-03-06T01:26:50.313Z,96086.28
2023-03-06T01:30:50.776Z,96079.03
2023-03-06T01:34:52.013Z,96067.97
2023-03-06T01:38:52.607Z,96064.75
2023-03-06T01:42:55.804Z,96056.91
2023-03-06T01:46:56.768Z,96064.97
2023-03-06T01:50:58.397Z,96056.31
2023-03-06T01:55:04.717Z,96037.22
2023-03-06T01:59:10.199Z,96047.06
2023-03-06T02:03:17.475Z,96037.44
2023-03-06T02:07:22.661Z,96037.00
2023-03-06T02:11:25.920Z,96023.75
2023-03-06T02:15:31.087Z,96029.19
2023-03-06T02:19:48.097Z,96015.72
2023-03-06T02:24:04.571Z,96016.53
2023-03-06T02:28:12.134Z,96004.06
2023-03-06T02:32:13.782Z,96004.88
2023-03-06T02:36:19.138Z,96008.88
2023-03-06T02:40:23.869Z,96007.44
2023-03-06T02:44:30.702Z,95999.22
2023-03-06T02:48:32.252Z,95986.75
2023-03-06T02:52:33.790Z,95989.59
2023-03-06T02:56:35.882Z,95979.53
2023-03-06T03:00:40.230Z,95971.47
2023-03-06T03:04:43.023Z,95968.09
2023-03-06T03:08:44.267Z,95972.72
2023-03-06T03:12:46.392Z,95972.72
2023-03-06T03:16:50.579Z,95965.06
2023-03-06T03:20:51.246Z,95939.97
2023-03-06T03:24:52.128Z,95945.34
2023-03-06T03:28:52.987Z,95951.00
2023-03-06T03:32:57.890Z,95948.19
2023-03-06T03:36:59.374Z,95940.75
2023-03-06T03:41:01.319Z,95943.75
2023-03-06T03:45:02.108Z,95946.56
2023-03-06T03:49:06.183Z,95950.34
2023-03-06T03:53:07.130Z,95937.69
2023-03-06T03:57:08.503Z,95930.44
2023-03-06T04:01:13.108Z,95936.03
2023-03-06T04:05:18.977Z,95929.19
2023-03-06T04:09:20.555Z,95923.56
2023-03-06T04:13:22.490Z,95930.78
2023-03-06T04:17:23.614Z,95932.38
2023-03-06T04:21:28.502Z,95901.84
2023-03-06T04:25:28.998Z,95922.75
2023-03-06T04:29:29.490Z,95905.88
2023-03-06T04:33:30.670Z,95905.88
2023-03-06T04:37:35.287Z,95905.88
2023-03-06T04:41:38.185Z,95909.31
2023-03-06T04:45:39.209Z,95904.69
2023-03-06T04:49:40.068Z,95896.28
2023-03-06T04:53:43.138Z,95885.41
2023-03-06T04:57:46.404Z,95882.63
2023-03-06T05:01:47.026Z,95874.59
2023-03-06T05:05:47.880Z,95888.84
2023-03-06T05:09:51.328Z,95877.84
2023-03-06T05:13:52.654Z,95872.84
2023-03-06T05:17:53.058Z,95875.47
2023-03-06T05:21:53.674Z,95875.47
2023-03-06T05:25:57.176Z,95865.41
2023-03-06T05:29:58.380Z,95866.41
2023-03-06T05:34:00.865Z,95868.19
2023-03-06T05:38:01.205Z,95857.75
2023-03-06T05:42:04.605Z,95870.63
2023-03-06T05:46:06.548Z,95870.19
2023-03-06T05:50:10.610Z,95856.75
2023-03-06T05:54:11.515Z,95859.00
2023-03-06T05:58:14.604Z,95868.22
2023-03-06T06:02:15.371Z,95866.41
2023-03-06T06:06:17.969Z,95861.81
2023-03-06T06:10:18.361Z,95856.59
2023-03-06T06:14:21.379Z,95850.94
2023-03-06T06:18:21.980Z,95848.72
2023-03-06T06:22:22.412Z,95858.56
2023-03-06T06:26:23.026Z,95847.72
2023-03-06T06:30:27.702Z,95855.53
2023-03-06T06:34:28.671Z,95858.50
2023-03-06T06:38:29.274Z,95848.00
2023-03-06T06:42:36.313Z,95852.44
2023-03-06T06:51:05.834Z,95845.72
2023-03-06T06:55:06.414Z,95839.63
2023-03-06T06:59:15.987Z,95834.56
2023-03-06T07:03:20.105Z,95840.59
2023-03-06T07:07:20.815Z,95842.78
2023-03-06T07:11:21.870Z,95843.28
2023-03-06T07:15:23.030Z,95856.44
2023-03-06T07:19:26.441Z,95856.28
2023-03-06T07:23:27.891Z,95855.75
2023-03-06T07:27:28.579Z,95858.78
2023-03-06T07:31:30.933Z,95859.66
2023-03-06T07:35:34.104Z,95848.13
2023-03-06T07:39:34.337Z,95851.19
2023-03-06T07:43:35.307Z,95850.59
2023-03-06T07:47:39.935Z,95856.81
2023-03-06T07:51:43.123Z,95862.50
2023-03-06T07:55:44.678Z,95863.91
2023-03-06T07:59:45.227Z,95860.75
2023-03-06T08:03:46.470Z,95868.75
2023-03-06T08:07:49.627Z,95863.91
2023-03-06T08:11:50.229Z,95866.94
2023-03-06T08:15:53.835Z,95862.69
2023-03-06T08:19:54.481Z,95863.84
2023-03-06T08:23:58.122Z,95839.84
2023-03-06T08:27:58.426Z,95855.00
2023-03-06T08:31:59.157Z,95856.38
2023-03-06T08:36:02.290Z,95864.09
2023-03-06T08:40:07.129Z,95855.44
2023-03-06T08:44:08.465Z,95848.88
2023-03-06T08:48:10.771Z,95855.91
2023-03-06T08:52:11.487Z,95852.00
2023-03-06T08:56:19.575Z,95853.69
2023-03-06T09:00:22.221Z,95855.72
2023-03-06T09:04:23.094Z,95847.69
2023-03-06T09:08:23.393Z,95857.91
2023-03-06T09:12:27.236Z,95868.22
2023-03-06T09:16:28.927Z,95869.13
2023-03-06T09:20:29.432Z,95862.41
2023-03-06T09:24:29.780Z,95858.38
2023-03-06T09:28:32.797Z,95865.84
2023-03-06T09:32:33.244Z,95864.06
2023-03-06T09:36:42.896Z,95871.28
2023-03-06T09:45:14.927Z,95855.53
2023-03-06T09:49:56.308Z,95870.81
2023-03-06T09:54:08.473Z,95858.81
2023-03-06T09:58:20.117Z,95853.03
2023-03-06T10:02:34.481Z,95854.19
2023-03-06T10:06:44.300Z,95848.63
2023-03-06T10:10:53.953Z,95844.13
2023-03-06T10:15:14.594Z,95839.66
2023-03-06T10:19:21.159Z,95837.31
2023-03-06T10:23:49.932Z,95840.91
2023-03-06T10:27:53.311Z,95843.47
2023-03-06T10:32:07.154Z,95825.13
2023-03-06T10:36:18.550Z,95831.22
2023-03-06T10:40:37.811Z,95830.47
2023-03-06T10:44:38.333Z,95828.00
2023-03-06T10:48:42.342Z,95837.50
2023-03-06T10:52:45.910Z,95831.56
2023-03-06T10:56:49.149Z,95821.88
2023-03-06T11:00:49.930Z,95835.75
2023-03-06T11:04:55.919Z,95838.06
2023-03-06T11:09:17.664Z,95831.94
2023-03-06T11:13:28.065Z,95826.19
2023-03-06T11:17:33.513Z,95798.22
2023-03-06T11:21:36.038Z,95809.69
2023-03-06T11:25:44.505Z,95814.06
2023-03-06T11:29:49.146Z,95794.38
2023-03-06T11:33:55.695Z,95817.78
2023-03-06T11:38:01.042Z,95825.78
2023-03-06T11:42:20.163Z,95823.06
2023-03-06T11:46:28.525Z,95836.34
2023-03-06T11:50:37.621Z,95831.59
2023-03-06T11:54:39.199Z,95827.44
2023-03-06T11:59:12.449Z,95817.81
2023-03-06T12:03:57.902Z,95804.09
2023-03-06T12:08:17.327Z,95787.69
2023-03-06T12:12:48.691Z,95790.84
2023-03-06T12:17:20.577Z,95790.38
2023-03-06T12:21:37.052Z,95791.38
2023-03-06T12:25:41.820Z,95789.94
2023-03-06T12:30:28.438Z,95806.84
2023-03-06T12:34:56.078Z,95798.91
2023-03-06T12:39:12.055Z,95790.53
2023-03-06T12:43:53.815Z,95784.72
2023-03-06T12:47:59.552Z,95784.13
2023-03-06T12:52:05.268Z,95774.28
2023-03-06T12:56:06.980Z,95776.91
2023-03-06T13:00:09.482Z,95777.78
2023-03-06T13:04:38.563Z,95768.34
2023-03-06T13:09:21.134Z,95766.75
2023-03-06T13:13:36.122Z,95768.25
2023-03-06T13:17:41.987Z,95763.56
2023-03-06T13:22:18.221Z,95765.78
2023-03-06T13:27:05.984Z,95762.81
2023-03-06T13:31:10.614Z,95763.50
2023-03-06T13:35:57.829Z,95752.75
2023-03-06T13:40:34.296Z,95752.28
2023-03-06T13:44:49.186Z,95744.09
2023-03-06T13:49:05.386Z,95749.81
2023-03-06T13:53:51.049Z,95740.19
2023-03-06T13:58:14.551Z,95740.88
2023-03-06T14:02:44.632Z,95724.75
2023-03-06T14:07:06.534Z,95733.06
2023-03-06T14:11:21.485Z,95728.50
2023-03-06T14:15:28.439Z,95736.00
2023-03-06T14:19:39.543Z,95727.66
2023-03-06T14:23:42.719Z,95728.91
2023-03-06T14:27:51.676Z,95731.50
2023-03-06T14:31:55.949Z,95734.94
2023-03-06T14:36:03.820Z,95743.03
2023-03-06T14:40:05.241Z,95764.19
2023-03-06T14:44:28.160Z,95759.38
2023-03-06T14:48:42.150Z,95749.63
2023-03-06T14:52:46.024Z,95754.72
2023-03-06T14:56:49.482Z,95742.38
2023-03-06T15:00:56.770Z,95751.47
2023-03-06T15:05:04.576Z,95743.38
2023-03-06T15:09:20.497Z,95746.53
2023-03-06T15:13:26.241Z,95755.50
2023-03-06T15:17:32.254Z,95755.03
2023-03-06T15:21:39.985Z,95735.59
2023-03-06T15:25:43.453Z,95748.63
2023-03-06T15:29:44.003Z,95753.88
2023-03-06T15:33:44.450Z,95753.03
2023-03-06T15:37:46.042Z,95721.00
2023-03-06T15:41:49.276Z,95752.63
2023-03-06T15:45:50.854Z,95758.91
2023-03-06T15:49:53.392Z,95777.91
2023-03-06T15:53:57.208Z,95766.41
2023-03-06T15:58:09.247Z,95766.91
2023-03-06T16:02:20.449Z,95763.88
2023-03-06T16:06:23.615Z,95765.72
2023-03-06T16:10:26.869Z,95770.97
2023-03-06T16:14:30.397Z,95768.41
2023-03-06T16:18:31.759Z,95768.81
2023-03-06T16:22:32.028Z,95768.16
2023-03-06T16:26:36.782Z,95762.28
2023-03-06T16:30:40.245Z,95766.03
2023-03-06T16:34:44.360Z,95771.63
2023-03-06T16:38:46.484Z,95769.47
2023-03-06T16:42:46.955Z,95771.91
2023-03-06T16:46:53.446Z,95767.53
2023-03-06T16:50:54.528Z,95765.34
2023-03-06T16:54:54.844Z,95770.72
2023-03-06T16:58:55.435Z,95776.34
2023-03-06T17:02:59.083Z,95770.00
2023-03-06T17:06:59.853Z,95773.22
2023-03-06T17:11:03.439Z,95769.41
2023-03-06T17:15:03.796Z,95774.06
2023-03-06T17:19:06.989Z,95777.53
2023-03-06T17:23:07.546Z,95776.63
2023-03-06T17:27:08.155Z,95786.97
2023-03-06T17:31:16.911Z,95798.75
2023-03-06T17:35:20.258Z,95800.31
2023-03-06T17:39:21.078Z,95797.47
2023-03-06T17:43:21.814Z,95805.19
2023-03-06T17:47:22.610Z,95807.50
2023-03-06T17:51:26.118Z,95810.03
2023-03-06T17:55:27.414Z,95810.31
2023-03-06T17:59:27.935Z,95808.75
2023-03-06T18:03:28.900Z,95817.63
2023-03-06T18:07:32.280Z,95823.75
2023-03-06T18:11:32.857Z,95817.63
2023-03-06T18:15:33.242Z,95815.66
2023-03-06T18:19:33.975Z,95821.25
2023-03-06T18:23:37.291Z,95819.44
2023-03-06T18:27:38.411Z,95810.59
2023-03-06T18:31:41.179Z,95790.28
2023-03-06T18:35:44.276Z,95821.91
2023-03-06T18:39:48.068Z,95829.41
2023-03-06T18:43:54.193Z,95810.72
2023-03-06T18:47:54.569Z,95806.97
2023-03-06T18:51:55.046Z,95823.16
2023-03-06T18:55:58.480Z,95818.94
2023-03-06T18:59:59.460Z,95826.84
2023-03-06T19:04:04.751Z,95811.53
2023-03-06T19:08:05.220Z,95813.03
2023-03-06T19:12:09.481Z,95823.00
2023-03-06T19:16:11.755Z,95823.75
2023-03-06T19:20:15.828Z,95823.75
2023-03-06T19:24:16.628Z,95822.53
2023-03-06T19:28:19.914Z,95826.13
2023-03-06T19:32:20.396Z,95824.28
2023-03-06T19:36:24.497Z,95830.25
2023-03-06T19:40:25.054Z,95790.00
2023-03-06T19:44:28.222Z,95815.75
2023-03-06T19:48:29.052Z,95822.47
2023-03-06T19:52:30.802Z,95806.00
2023-03-06T19:56:33.805Z,95825.38
2023-03-06T20:00:38.221Z,95818.09
2023-03-06T20:04:41.232Z,95814.50
2023-03-06T20:08:41.889Z,95817.69
2023-03-06T20:12:42.556Z,95819.38
2023-03-06T20:16:46.133Z,95821.91
2023-03-06T20:20:46.640Z,95799.47
2023-03-06T20:24:47.110Z,95809.84
2023-03-06T20:28:47.630Z,95827.44
2023-03-06T20:32:51.714Z,95822.34
2023-03-06T20:36:52.106Z,95818.53
2023-03-06T20:40:54.814Z,95830.59
2023-03-06T20:44:55.203Z,95822.56
2023-03-06T20:48:59.653Z,95815.16
2023-03-06T20:53:01.034Z,95809.91
2023-03-06T20:57:02.306Z,95823.19
2023-03-06T21:01:02.904Z,95812.28
2023-03-06T21:05:06.820Z,95816.41
2023-03-06T21:09:09.955Z,95794.28
2023-03-06T21:13:10.617Z,95808.25
2023-03-06T21:17:12.290Z,95802.16
2023-03-06T21:21:20.715Z,95791.91
2023-03-06T21:25:21.650Z,95778.97
2023-03-06T21:29:22.064Z,95795.06
2023-03-06T21:33:22.748Z,95789.53
2023-03-06T21:37:26.307Z,95779.94
2023-03-06T21:41:30.658Z,95787.63
2023-03-06T21:45:31.459Z,95780.81
2023-03-06T21:49:32.098Z,95771.25
2023-03-06T21:53:35.249Z,95775.56
2023-03-06T21:57:39.266Z,95773.78
2023-03-06T22:01:40.287Z,95766.16
2023-03-06T22:05:43.403Z,95765.69
2023-03-06T22:09:46.768Z,95758.19
2023-03-06T22:13:48.536Z,95753.53
2023-03-06T22:17:49.933Z,95766.78
2023-03-06T22:21:50.315Z,95750.81
2023-03-06T22:25:53.585Z,95747.53
2023-03-06T22:29:54.022Z,95743.69
2023-03-06T22:33:55.540Z,95738.28
2023-03-06T22:37:56.234Z,95740.09
2023-03-06T22:42:01.402Z,95740.56
2023-03-06T22:46:05.193Z,95736.31
2023-03-06T22:50:05.943Z,95746.84
2023-03-06T22:54:06.499Z,95746.16
2023-03-06T22:58:10.027Z,95749.81
2023-03-06T23:02:10.877Z,95745.69
2023-03-06T23:06:14.596Z,95746.91
2023-03-06T23:10:15.248Z,95740.50
2023-03-06T23:14:37.266Z,95740.84
2023-03-06T23:18:59.629Z,95734.97
2023-03-06T23:23:18.623Z,95740.28
2023-03-06T23:27:19.732Z,95737.19
2023-03-06T23:31:28.598Z,95738.53
2023-03-06T23:35:29.447Z,95751.88
2023-03-06T23:39:30.592Z,95739.84
2023-03-06T23:43:31.746Z,95737.34
2023-03-06T23:47:37.940Z,95725.66
2023-03-06T23:51:38.286Z,95732.53
2023-03-06T23:55:38.791Z,95730.16
2023-03-06T23:59:39.662Z,95734.22
